Flight Track Log - Related Links

Times and Time Zones

All times are in EDT time to prevent confusion due to time zone crossing. See the EJA396 flight status page for this flight to view local times or setup timezone preferences in your user account.

Time Position Orientation Groundspeed Altitude Reporting Facility
EDT Latitude Longitude Course Direction KTS MPH feet Rate Location/Type
Sat 12:12:52 PM 39.8408 -104.7375 254° West 164 189 7,500  Level Denver Center
Sat 12:13:54 PM 39.8208 -104.8294 254° West 253 291 10,100 1,258 Climbing Denver Center
Sat 12:14:56 PM 39.7936 -104.9275 250° West 284 327 10,100 1,171 Level Denver Center
Sat 12:15:57 PM 39.7661 -105.0261 250° West 290 334 12,500 2,732 Climbing Denver Center
Sat 12:16:59 PM 39.7219 -105.1511 245° Southwest 349 402 15,700 2,912 Climbing Denver Center
Sat 12:18:13 PM 39.6794 -105.2692 245° Southwest 360 414 19,100 3,353 Climbing Denver Center
Sat 12:19:15 PM 39.6281 -105.4158 246° West 356 410 23,300 3,290 Climbing Denver Center
Sat 12:20:17 PM 39.5850 -105.5336 245° Southwest 360 414 25,900 2,226 Climbing Denver Center
Sat 12:21:19 PM 39.5417 -105.6594 246° West 379 436 27,900 1,984 Climbing Denver Center
Sat 12:22:21 PM 39.5050 -105.7953 251° West 397 457 30,000 1,935 Climbing Denver Center
Sat 12:23:23 PM 39.4658 -105.9325 250° West 401 461 31,900 968 Climbing Denver Center
Sat 12:24:25 PM 39.4178 -106.1075 250° West 429 494 32,000 49 Climbing Denver Center
Sat 12:25:26 PM 39.3847 -106.2225 250° West 432 497 32,000  Level Denver Center
Sat 12:26:29 PM 39.3328 -106.4094 250° West 432 497 32,000 240 Level Denver Center
Sat 12:27:31 PM 39.2906 -106.5500 249° West 435 501 32,500 677 Climbing Denver Center
Sat 12:28:33 PM 39.2500 -106.6889 249° West 435 501 33,400 726 Climbing Denver Center
Sat 12:29:35 PM 39.1728 -106.8283 234° Southwest 428 493 34,000 290 Climbing Denver Center
Sat 12:30:37 PM 39.0986 -106.9428 230° Southwest 430 495 34,000  Level Denver Center
Sat 12:31:38 PM 39.0250 -107.0572 230° Southwest 430 495 34,000  Level Denver Center
Sat 12:32:41 PM 38.9469 -107.1961 234° Southwest 430 495 34,000  Level Denver Center
Sat 12:33:43 PM 38.8703 -107.3350 235° Southwest 427 491 34,000  Level Denver Center
Sat 12:34:45 PM 38.8053 -107.4508 234° Southwest 420 483 34,000  Level Denver Center
Sat 12:35:47 PM 38.7250 -107.5925 234° Southwest 435 501 34,000  Level Denver Center
Sat 12:36:49 PM 38.6683 -107.6911 234° Southwest 435 501 34,000  Level Denver Center
Sat 12:37:51 PM 38.5778 -107.8517 234° Southwest 435 501 34,000  Level Denver Center
Sat 12:38:53 PM 38.5106 -107.9681 234° Southwest 427 491 34,000  Level Denver Center
Sat 12:39:55 PM 38.4439 -108.0856 234° Southwest 425 489 34,000  Level Denver Center
Sat 12:40:57 PM 38.3650 -108.2214 233° Southwest 425 489 34,000  Level Denver Center
Sat 12:41:59 PM 38.2975 -108.3375 233° Southwest 425 489 34,000  Level Denver Center
Sat 12:43:01 PM 38.2183 -108.4750 234° Southwest 427 491 34,000  Level Denver Center
Sat 12:44:04 PM 38.1500 -108.5917 233° Southwest 428 493 34,000 -480 Level Denver Center
Sat 12:45:06 PM 38.0700 -108.7283 233° Southwest 428 493 33,000 -968 Descending Denver Center
Sat 12:46:08 PM 38.0006 -108.8450 233° Southwest 429 494 32,000 -484 Descending Denver Center
Sat 12:47:10 PM 37.9206 -108.9781 233° Southwest 425 489 32,000  Level Denver Center
Sat 12:48:12 PM 37.8489 -109.1006 233° Southwest 446 513 32,000  Level Denver Center
Sat 12:49:14 PM 37.7653 -109.2389 233° Southwest 448 516 32,000  Level Denver Center
Sat 12:50:16 PM 37.6942 -109.3586 233° Southwest 447 514 32,000  Level Denver Center
Sat 12:51:18 PM 37.6111 -109.4978 233° Southwest 447 514 32,000  Level Denver Center
Sat 12:52:20 PM 37.5511 -109.5972 233° Southwest 447 514 32,000  Level Denver Center
Sat 12:53:22 PM 37.4686 -109.7344 233° Southwest 446 513 32,000  Level Denver Center
Sat 12:54:24 PM 37.3847 -109.8717 232° Southwest 445 512 32,000  Level Denver Center
Sat 12:55:26 PM 37.3133 -109.9886 233° Southwest 444 511 32,000  Level Denver Center
Sat 12:56:28 PM 37.2300 -110.1247 232° Southwest 441 507 32,000  Level Denver Center
Sat 12:57:30 PM 37.1522 -110.2506 232° Southwest 441 507 32,000  Level Denver Center
Sat 12:58:33 PM 37.0781 -110.3714 232° Southwest 441 507 32,000  Level Denver Center
Sat 12:59:35 PM 37.0025 -110.4944 232° Southwest 442 509 32,000 -221 Level Denver Center
Sat 01:00:49 PM 36.9267 -110.6156 232° Southwest 442 509 31,500 -1,015 Descending Denver Center
Sat 01:01:51 PM 36.8392 -110.7567 232° Southwest 431 496 29,700 -1,984 Descending Denver Center
Sat 01:02:53 PM 36.7547 -110.8933 232° Southwest 419 482 27,400 -2,419 Descending Denver Center
Sat 01:03:55 PM 36.6847 -111.0069 232° Southwest 416 479 24,700 -3,048 Descending Denver Center
Sat 01:04:57 PM 36.6128 -111.1167 231° Southwest 414 476 21,100 -3,312 Descending Denver Center
Sat 01:06:00 PM 36.5503 -111.2167 232° Southwest 387 445 17,800 -2,516 Descending Denver Center
Sat 01:07:01 PM 36.4925 -111.3100 232° Southwest 359 413 15,900 -844 Descending Denver Center
Sat 01:08:15 PM 36.4328 -111.4033 232° Southwest 345 397 15,900  Level Denver Center
Sat 01:09:18 PM 36.3439 -111.5431 232° Southwest 359 413 15,900 -221 Level Denver Center
Sat 01:10:31 PM 36.2739 -111.6528 232° Southwest 335 386 15,400 -1,111 Descending Los Angeles Center
Sat 01:11:33 PM 36.2256 -111.7289 232° Southwest 293 337 13,400 -1,935 Descending Los Angeles Center
Sat 01:12:35 PM 36.1817 -111.7964 231° Southwest 275 316 11,400 -1,210 Descending Los Angeles Center
Sat 01:13:37 PM 36.1364 -111.8361 215° Southwest 251 289 10,900 -242 Descending Los Angeles Center
Sat 01:14:39 PM 36.0800 -111.8617 200° South 227 261 10,900  Level Los Angeles Center
Sat 01:15:41 PM 36.0114 -111.8922 200° South 223 257 10,900  Level Los Angeles Center
Sat 01:16:43 PM 35.9636 -111.9331 215° Southwest 227 261 10,900 -532 Level Los Angeles Center
Sat 01:17:45 PM 35.9794 -112.0061 285° West 225 259 9,800 -677 Descending Los Angeles Center
Sat 01:18:47 PM 36.0036 -112.0689 295° West 221 254 9,500 -290 Descending Los Angeles Center
Sat 01:20:00 PM 35.9500 -112.1333 238° Southwest  Level FlightAware Approximate

Login

Don't have an account? Register now (free) for customized features, flight alerts, and more!